createdAt,value
2019-02-21T00:00:31.387Z,102120.28
2019-02-21T00:01:38.750Z,102121.55
2019-02-21T00:02:43.433Z,102118.91
2019-02-21T00:03:48.993Z,102121.08
2019-02-21T00:04:53.788Z,102117.62
2019-02-21T00:05:59.121Z,102118.36
2019-02-21T00:07:04.267Z,102123.55
2019-02-21T00:08:09.239Z,102125.14
2019-02-21T00:09:14.224Z,102122.42
2019-02-21T00:10:19.187Z,102119.62
2019-02-21T00:11:24.516Z,102119.83
2019-02-21T00:12:29.519Z,102119.88
2019-02-21T00:13:34.839Z,102124.55
2019-02-21T00:14:40.136Z,102118.58
2019-02-21T00:15:45.232Z,102126.18
2019-02-21T00:16:50.315Z,102122.58
2019-02-21T00:17:55.561Z,102128.47
2019-02-21T00:19:00.320Z,102122.84
2019-02-21T00:20:05.588Z,102131.58
2019-02-21T00:21:10.638Z,102124.22
2019-02-21T00:22:15.641Z,102127.70
2019-02-21T00:23:20.396Z,102120.15
2019-02-21T00:24:25.658Z,102125.13
2019-02-21T00:25:30.646Z,102124.42
2019-02-21T00:26:35.929Z,102128.30
2019-02-21T00:27:40.658Z,102119.55
2019-02-21T00:28:45.648Z,102122.39
2019-02-21T00:29:50.959Z,102122.41
2019-02-21T00:30:56.477Z,102131.63
2019-02-21T00:32:01.596Z,102127.59
2019-02-21T00:33:06.606Z,102120.92
2019-02-21T00:34:11.345Z,102128.80
2019-02-21T00:35:16.310Z,102131.31
2019-02-21T00:36:21.589Z,102131.98
2019-02-21T00:37:26.616Z,102136.31
2019-02-21T00:38:31.638Z,102132.39
2019-02-21T00:39:36.615Z,102135.98
2019-02-21T00:40:41.848Z,102132.94
2019-02-21T00:41:47.123Z,102124.38
2019-02-21T00:42:52.169Z,102125.97
2019-02-21T00:43:57.154Z,102126.13
2019-02-21T00:45:02.161Z,102117.00
2019-02-21T00:46:06.833Z,102117.03
2019-02-21T00:47:11.642Z,102112.61
2019-02-21T00:48:16.898Z,102121.86
2019-02-21T00:49:22.171Z,102118.61
2019-02-21T00:50:27.174Z,102114.48
2019-02-21T00:51:32.423Z,102116.20
2019-02-21T00:52:37.672Z,102117.91
2019-02-21T00:53:42.941Z,102117.07
2019-02-21T00:54:48.246Z,102115.23
2019-02-21T00:55:52.978Z,102116.02
2019-02-21T00:56:57.763Z,102114.73
2019-02-21T00:58:02.572Z,102118.48
2019-02-21T00:59:08.162Z,102120.68
2019-02-21T01:00:13.761Z,102121.34
2019-02-21T01:01:20.751Z,102125.38
2019-02-21T01:02:26.071Z,102120.44
2019-02-21T01:03:31.652Z,102121.14
2019-02-21T01:04:36.774Z,102121.80
2019-02-21T01:05:42.029Z,102123.50
2019-02-21T01:06:46.790Z,102124.14
2019-02-21T01:07:52.093Z,102122.59
2019-02-21T01:08:57.118Z,102123.81
2019-02-21T01:10:02.227Z,102127.17
2019-02-21T01:11:07.252Z,102121.69
2019-02-21T01:12:12.309Z,102132.56
2019-02-21T01:13:17.576Z,102133.02
2019-02-21T01:14:22.546Z,102131.91
2019-02-21T01:15:27.512Z,102130.12
2019-02-21T01:16:32.793Z,102128.37
2019-02-21T01:17:37.814Z,102130.98
2019-02-21T01:18:43.013Z,102134.84
2019-02-21T01:19:48.311Z,102139.07
2019-02-21T01:20:53.254Z,102136.13
2019-02-21T01:21:58.966Z,102139.40
2019-02-21T01:23:03.958Z,102143.27
2019-02-21T01:24:08.756Z,102140.62
2019-02-21T01:25:13.480Z,102138.56
2019-02-21T01:26:19.028Z,102142.49
2019-02-21T01:27:24.376Z,102143.89
2019-02-21T01:28:29.417Z,102140.39
2019-02-21T01:29:34.105Z,102143.48
2019-02-21T01:30:39.557Z,102137.36
2019-02-21T01:31:45.228Z,102137.25
2019-02-21T01:32:50.513Z,102145.45
2019-02-21T01:33:55.582Z,102145.32
2019-02-21T01:35:00.615Z,102146.89
2019-02-21T01:36:05.619Z,102143.03
2019-02-21T01:37:10.383Z,102144.91
2019-02-21T01:38:15.681Z,102139.55
2019-02-21T01:39:20.400Z,102140.49
2019-02-21T01:40:25.156Z,102145.14
2019-02-21T01:41:30.146Z,102138.06
2019-02-21T01:42:35.442Z,102142.91
2019-02-21T01:43:40.491Z,102142.27
2019-02-21T01:44:45.470Z,102143.95
2019-02-21T01:45:50.484Z,102138.47
2019-02-21T01:46:55.793Z,102143.88
2019-02-21T01:48:01.041Z,102144.58
2019-02-21T01:49:06.048Z,102144.44
2019-02-21T01:50:10.816Z,102146.00
2019-02-21T01:51:15.792Z,102142.80
2019-02-21T01:52:21.048Z,102138.03
2019-02-21T01:53:26.327Z,102141.95
2019-02-21T01:54:31.330Z,102141.41
2019-02-21T01:55:36.648Z,102141.05
2019-02-21T01:56:41.960Z,102145.50
2019-02-21T01:57:47.061Z,102143.53
2019-02-21T01:58:52.321Z,102138.02
2019-02-21T01:59:57.574Z,102140.64
2019-02-21T02:01:08.625Z,102133.82
2019-02-21T02:02:09.837Z,102134.55
2019-02-21T02:03:15.212Z,102135.05
2019-02-21T02:04:20.450Z,102148.76
2019-02-21T02:05:25.169Z,102144.05
2019-02-21T02:06:30.137Z,102147.47
2019-02-21T02:07:35.213Z,102142.53
2019-02-21T02:08:40.227Z,102136.48
2019-02-21T02:09:45.196Z,102140.95
2019-02-21T02:10:49.917Z,102139.78
2019-02-21T02:11:54.904Z,102142.21
2019-02-21T02:13:00.211Z,102142.12
2019-02-21T02:14:04.911Z,102142.45
2019-02-21T02:15:10.071Z,102141.29
2019-02-21T02:16:14.804Z,102143.08
2019-02-21T02:17:20.243Z,102144.29
2019-02-21T02:18:25.807Z,102141.31
2019-02-21T02:19:30.754Z,102137.94
2019-02-21T02:20:36.036Z,102137.44
2019-02-21T02:21:41.078Z,102139.03
2019-02-21T02:22:46.610Z,102139.30
2019-02-21T02:23:51.590Z,102134.09
2019-02-21T02:24:56.559Z,102137.66
2019-02-21T02:26:01.498Z,102139.56
2019-02-21T02:27:06.541Z,102140.19
2019-02-21T02:28:11.836Z,102137.81
2019-02-21T02:29:17.112Z,102137.14
2019-02-21T02:30:22.175Z,102137.13
2019-02-21T02:31:27.149Z,102141.36
2019-02-21T02:32:32.418Z,102145.55
2019-02-21T02:33:37.730Z,102146.76
2019-02-21T02:34:42.491Z,102147.13
2019-02-21T02:35:48.064Z,102147.09
2019-02-21T02:36:53.328Z,102145.42
2019-02-21T02:37:58.362Z,102152.73
2019-02-21T02:39:04.301Z,102141.87
2019-02-21T02:40:09.429Z,102144.72
2019-02-21T02:41:14.924Z,102137.78
2019-02-21T02:42:19.972Z,102145.42
2019-02-21T02:43:25.586Z,102144.80
2019-02-21T02:44:30.922Z,102148.09
2019-02-21T02:45:36.555Z,102145.50
2019-02-21T02:46:41.442Z,102154.84
2019-02-21T02:47:47.028Z,102156.48
2019-02-21T02:48:52.349Z,102151.31
2019-02-21T02:49:57.637Z,102155.22
2019-02-21T02:51:03.017Z,102158.16
2019-02-21T02:52:08.108Z,102163.27
2019-02-21T02:53:13.386Z,102160.27
2019-02-21T02:54:18.393Z,102156.55
2019-02-21T02:55:23.666Z,102161.50
2019-02-21T02:56:29.097Z,102165.09
2019-02-21T02:57:34.377Z,102162.97
2019-02-21T02:58:39.927Z,102163.16
2019-02-21T02:59:45.484Z,102156.19
2019-02-21T03:00:50.467Z,102162.75
2019-02-21T03:01:55.233Z,102160.56
2019-02-21T03:03:00.288Z,102163.27
2019-02-21T03:04:05.004Z,102159.91
2019-02-21T03:05:09.719Z,102162.95
2019-02-21T03:06:14.475Z,102159.73
2019-02-21T03:07:19.445Z,102161.31
2019-02-21T03:08:24.819Z,102160.02
2019-02-21T03:09:30.104Z,102161.06
2019-02-21T03:10:35.654Z,102168.53
2019-02-21T03:11:40.641Z,102160.03
2019-02-21T03:12:46.201Z,102163.50
2019-02-21T03:13:51.214Z,102158.56
2019-02-21T03:14:56.497Z,102159.05
2019-02-21T03:16:01.535Z,102161.63
2019-02-21T03:17:06.532Z,102166.36
2019-02-21T03:18:11.820Z,102162.50
2019-02-21T03:19:17.145Z,102162.53
2019-02-21T03:20:22.218Z,102162.09
2019-02-21T03:21:27.492Z,102166.00
2019-02-21T03:22:32.477Z,102161.44
2019-02-21T03:23:37.466Z,102162.55
2019-02-21T03:24:42.488Z,102164.15
2019-02-21T03:25:48.093Z,102160.60
2019-02-21T03:26:53.396Z,102163.46
2019-02-21T03:28:01.508Z,102166.55
2019-02-21T03:29:06.519Z,102162.02
2019-02-21T03:30:12.963Z,102165.52
2019-02-21T03:31:17.780Z,102164.95
2019-02-21T03:32:23.061Z,102163.33
2019-02-21T03:33:28.647Z,102164.37
2019-02-21T03:34:33.325Z,102160.48
2019-02-21T03:35:38.584Z,102169.44
2019-02-21T03:36:44.173Z,102171.66
2019-02-21T03:37:48.864Z,102169.25
2019-02-21T03:38:54.148Z,102166.86
2019-02-21T03:39:59.287Z,102167.77
2019-02-21T03:41:04.910Z,102166.55
2019-02-21T03:42:09.605Z,102167.27
2019-02-21T03:43:14.323Z,102158.81
2019-02-21T03:44:19.086Z,102160.56
2019-02-21T03:45:24.100Z,102161.36
2019-02-21T03:46:29.377Z,102161.09
2019-02-21T03:47:34.678Z,102161.75
2019-02-21T03:48:41.034Z,102159.05
2019-02-21T03:49:46.343Z,102158.42
2019-02-21T03:50:51.335Z,102160.30
2019-02-21T03:51:56.699Z,102160.00
2019-02-21T03:53:01.815Z,102164.00
2019-02-21T03:54:07.320Z,102161.86
2019-02-21T03:55:12.278Z,102157.97
2019-02-21T03:56:16.982Z,102153.67
2019-02-21T03:57:22.264Z,102161.90
2019-02-21T03:58:27.636Z,102159.50
2019-02-21T03:59:32.892Z,102158.20
2019-02-21T04:00:37.900Z,102158.59
2019-02-21T04:01:42.897Z,102156.19
2019-02-21T04:02:48.132Z,102160.86
2019-02-21T04:03:53.126Z,102163.92
2019-02-21T04:04:58.135Z,102161.14
2019-02-21T04:06:03.557Z,102155.84
2019-02-21T04:07:08.560Z,102159.95
2019-02-21T04:08:13.390Z,102161.75
2019-02-21T04:09:18.723Z,102159.84
2019-02-21T04:10:23.710Z,102156.56
2019-02-21T04:11:29.012Z,102160.88
2019-02-21T04:12:33.707Z,102160.72
2019-02-21T04:13:38.689Z,102157.55
2019-02-21T04:14:43.683Z,102156.98
2019-02-21T04:15:48.756Z,102159.45
2019-02-21T04:16:53.823Z,102161.67
2019-02-21T04:17:59.496Z,102161.78
2019-02-21T04:19:04.937Z,102158.25
2019-02-21T04:20:09.975Z,102155.00
2019-02-21T04:21:15.277Z,102157.63
2019-02-21T04:22:20.026Z,102159.65
2019-02-21T04:23:25.237Z,102159.86
2019-02-21T04:24:30.475Z,102159.57
2019-02-21T04:25:35.185Z,102161.45
2019-02-21T04:26:40.539Z,102156.36
2019-02-21T04:27:45.867Z,102159.53
2019-02-21T04:28:51.134Z,102151.59
2019-02-21T04:29:56.520Z,102156.06
2019-02-21T04:31:02.149Z,102153.69
2019-02-21T04:32:16.645Z,102146.97
2019-02-21T04:33:14.198Z,102151.05
2019-02-21T04:34:19.103Z,102151.31
2019-02-21T04:35:24.421Z,102145.50
2019-02-21T04:36:29.682Z,102151.56
2019-02-21T04:37:34.943Z,102144.63
2019-02-21T04:38:40.176Z,102145.73
2019-02-21T04:39:45.148Z,102149.20
2019-02-21T04:40:50.177Z,102149.13
2019-02-21T04:41:55.426Z,102142.53
2019-02-21T04:43:00.791Z,102137.78
2019-02-21T04:44:05.811Z,102139.08
2019-02-21T04:45:11.013Z,102139.62
2019-02-21T04:46:16.292Z,102142.54
2019-02-21T04:47:21.872Z,102138.50
2019-02-21T04:48:27.157Z,102150.25
2019-02-21T04:49:32.430Z,102145.84
2019-02-21T04:50:37.421Z,102156.74
2019-02-21T04:51:42.462Z,102152.31
2019-02-21T04:52:47.221Z,102152.90
2019-02-21T04:53:52.256Z,102157.16
2019-02-21T04:54:57.495Z,102158.89
2019-02-21T04:56:02.295Z,102151.06
2019-02-21T04:57:07.620Z,102151.69
2019-02-21T04:58:12.614Z,102155.69
2019-02-21T04:59:17.579Z,102152.27
2019-02-21T05:00:22.281Z,102153.56
2019-02-21T05:01:27.530Z,102149.88
2019-02-21T05:02:32.503Z,102153.22
2019-02-21T05:03:38.006Z,102151.61
2019-02-21T05:04:43.283Z,102149.94
2019-02-21T05:05:48.256Z,102143.52
2019-02-21T05:06:53.334Z,102143.34
2019-02-21T05:07:58.560Z,102145.67
2019-02-21T05:09:07.280Z,102151.39
2019-02-21T05:10:11.357Z,102146.98
2019-02-21T05:11:16.660Z,102140.75
2019-02-21T05:12:21.794Z,102142.74
2019-02-21T05:13:26.560Z,102140.31
2019-02-21T05:14:31.324Z,102141.73
2019-02-21T05:15:36.307Z,102137.39
2019-02-21T05:16:44.569Z,102134.00
2019-02-21T05:17:48.903Z,102134.78
2019-02-21T05:18:53.894Z,102139.01
2019-02-21T05:19:59.292Z,102136.33
2019-02-21T05:21:04.308Z,102140.56
2019-02-21T05:22:09.874Z,102137.71
2019-02-21T05:23:15.234Z,102140.12
2019-02-21T05:24:20.279Z,102135.05
2019-02-21T05:25:25.571Z,102139.13
2019-02-21T05:26:35.191Z,102128.95
2019-02-21T05:27:48.305Z,102132.86
2019-02-21T05:28:53.638Z,102131.00
2019-02-21T05:29:58.366Z,102135.00
2019-02-21T05:31:07.501Z,102134.83
2019-02-21T05:32:41.041Z,102135.41
2019-02-21T05:33:55.888Z,102140.02
2019-02-21T05:35:25.859Z,102138.72
2019-02-21T05:36:55.512Z,102136.66
2019-02-21T05:38:38.051Z,102139.03
2019-02-21T05:40:03.112Z,102137.54
2019-02-21T05:41:45.358Z,102145.23
2019-02-21T05:42:55.965Z,102139.05
2019-02-21T05:44:12.994Z,102142.41
2019-02-21T05:45:23.983Z,102140.94
2019-02-21T05:46:43.407Z,102140.95
2019-02-21T05:48:05.998Z,102141.52
2019-02-21T05:49:29.049Z,102141.00
2019-02-21T05:50:47.983Z,102142.45
2019-02-21T05:52:11.859Z,102143.43
2019-02-21T05:53:28.591Z,102149.26
2019-02-21T05:55:04.307Z,102153.13
2019-02-21T05:56:30.553Z,102146.18
2019-02-21T05:57:57.242Z,102145.61
2019-02-21T05:59:15.802Z,102146.99
2019-02-21T06:00:43.297Z,102145.66
2019-02-21T06:02:11.290Z,102150.66
2019-02-21T06:03:36.116Z,102144.31
2019-02-21T06:05:15.289Z,102150.39
2019-02-21T06:06:35.545Z,102142.77
2019-02-21T06:07:50.958Z,102142.06
2019-02-21T06:09:13.795Z,102142.66
2019-02-21T06:10:30.729Z,102146.05
2019-02-21T06:11:48.584Z,102147.09
2019-02-21T06:13:18.622Z,102139.19
2019-02-21T06:14:58.179Z,102139.19
2019-02-21T06:16:22.989Z,102141.19
2019-02-21T06:17:52.927Z,102148.56
2019-02-21T06:19:15.720Z,102152.59
2019-02-21T06:20:28.315Z,102156.17
2019-02-21T06:21:54.761Z,102154.84
2019-02-21T06:23:15.326Z,102158.59
2019-02-21T06:24:29.588Z,102162.83
2019-02-21T06:25:51.086Z,102159.47
2019-02-21T06:26:57.580Z,102162.98
2019-02-21T06:28:24.060Z,102167.09
2019-02-21T06:29:51.217Z,102167.23
2019-02-21T06:31:00.191Z,102165.97
2019-02-21T06:32:13.860Z,102169.67
2019-02-21T06:33:12.759Z,102161.05
2019-02-21T06:34:17.571Z,102160.12
2019-02-21T06:35:22.360Z,102165.16
2019-02-21T06:36:27.674Z,102170.27
2019-02-21T06:37:32.399Z,102165.63
2019-02-21T06:38:37.404Z,102170.61
2019-02-21T06:39:42.888Z,102173.47
2019-02-21T06:40:48.265Z,102176.15
2019-02-21T06:41:59.714Z,102172.81
2019-02-21T06:43:00.385Z,102172.42
2019-02-21T06:44:05.213Z,102177.20
2019-02-21T06:45:10.245Z,102179.77
2019-02-21T06:46:15.017Z,102183.38
2019-02-21T06:47:20.097Z,102180.61
2019-02-21T06:48:25.408Z,102184.03
2019-02-21T06:49:32.873Z,102187.82
2019-02-21T06:50:37.335Z,102189.94
2019-02-21T06:51:42.333Z,102194.38
2019-02-21T06:52:47.695Z,102190.13
2019-02-21T06:53:53.274Z,102183.83
2019-02-21T06:54:58.355Z,102186.33
2019-02-21T06:56:03.648Z,102191.74
2019-02-21T06:57:09.058Z,102191.58
2019-02-21T06:58:14.359Z,102194.50
2019-02-21T06:59:19.669Z,102192.71
2019-02-21T07:00:24.874Z,102193.81
2019-02-21T07:01:30.149Z,102191.74
2019-02-21T07:02:34.867Z,102193.32
2019-02-21T07:03:40.426Z,102193.64
2019-02-21T07:04:45.809Z,102196.42
2019-02-21T07:05:50.828Z,102204.24
2019-02-21T07:06:56.849Z,102202.54
2019-02-21T07:08:02.575Z,102196.40
2019-02-21T07:09:07.281Z,102195.45
2019-02-21T07:10:12.545Z,102204.53
2019-02-21T07:11:18.129Z,102202.05
2019-02-21T07:12:23.387Z,102209.84
2019-02-21T07:13:27.855Z,102207.21
2019-02-21T07:14:34.452Z,102212.49
2019-02-21T07:15:39.511Z,102208.52
2019-02-21T07:16:44.511Z,102214.79
2019-02-21T07:17:49.873Z,102212.08
2019-02-21T07:18:55.259Z,102208.28
2019-02-21T07:20:00.526Z,102211.55
2019-02-21T07:21:06.913Z,102214.33
2019-02-21T07:22:17.870Z,102205.23
2019-02-21T07:23:19.293Z,102204.05
2019-02-21T07:24:24.387Z,102208.04
2019-02-21T07:25:39.611Z,102207.61
2019-02-21T07:26:44.627Z,102214.53
2019-02-21T07:27:49.266Z,102214.64
2019-02-21T07:28:54.330Z,102219.02
2019-02-21T07:30:02.719Z,102215.14
2019-02-21T07:31:08.347Z,102218.12
2019-02-21T07:32:13.346Z,102214.16
2019-02-21T07:33:27.714Z,102215.55
2019-02-21T07:34:25.421Z,102217.63
2019-02-21T07:35:31.395Z,102220.63
2019-02-21T07:36:36.869Z,102218.13
2019-02-21T07:37:42.394Z,102219.87
2019-02-21T07:38:47.797Z,102224.76
2019-02-21T07:39:53.041Z,102219.59
2019-02-21T07:40:57.968Z,102223.88
2019-02-21T07:42:03.355Z,102224.19
2019-02-21T07:43:08.931Z,102222.30
2019-02-21T07:44:13.676Z,102222.47
2019-02-21T07:45:19.230Z,102225.59
2019-02-21T07:46:24.557Z,102223.47
2019-02-21T07:47:29.343Z,102222.77
2019-02-21T07:48:36.393Z,102223.66
2019-02-21T07:49:40.541Z,102224.42
2019-02-21T07:50:45.593Z,102219.13
2019-02-21T07:51:50.974Z,102224.13
2019-02-21T07:53:02.338Z,102233.73
2019-02-21T07:54:03.406Z,102230.88
2019-02-21T07:55:10.464Z,102237.17
2019-02-21T07:56:14.629Z,102227.41
2019-02-21T07:57:19.623Z,102229.58
2019-02-21T07:58:24.610Z,102226.97
2019-02-21T07:59:29.676Z,102228.28
2019-02-21T08:00:34.933Z,102223.55
2019-02-21T08:01:39.631Z,102230.72
2019-02-21T08:02:44.856Z,102226.97
2019-02-21T08:03:49.291Z,102231.02
2019-02-21T08:04:54.307Z,102228.38
2019-02-21T08:05:59.606Z,102225.56
2019-02-21T08:07:04.352Z,102232.36
2019-02-21T08:08:09.435Z,102236.20
2019-02-21T08:09:14.797Z,102226.17
2019-02-21T08:10:25.764Z,102233.95
2019-02-21T08:11:27.080Z,102232.27
2019-02-21T08:12:32.052Z,102230.97
2019-02-21T08:13:37.601Z,102224.77
2019-02-21T08:14:43.441Z,102224.16
2019-02-21T08:15:48.249Z,102229.47
2019-02-21T08:16:55.999Z,102229.59
2019-02-21T08:18:00.450Z,102230.69
2019-02-21T08:19:05.155Z,102231.84
2019-02-21T08:20:11.239Z,102227.30
2019-02-21T08:21:16.345Z,102234.94
2019-02-21T08:22:21.620Z,102242.41
2019-02-21T08:23:26.626Z,102243.64
2019-02-21T08:24:31.322Z,102249.46
2019-02-21T08:25:36.641Z,102250.82
2019-02-21T08:26:41.340Z,102244.58
2019-02-21T08:27:46.611Z,102245.97
2019-02-21T08:28:51.648Z,102250.84
2019-02-21T08:29:56.640Z,102250.52
2019-02-21T08:31:01.910Z,102249.46
2019-02-21T08:32:06.889Z,102244.33
2019-02-21T08:33:37.365Z,102251.31
2019-02-21T08:34:48.064Z,102251.29
2019-02-21T08:35:54.044Z,102259.28
2019-02-21T08:36:59.822Z,102257.75
2019-02-21T08:38:05.137Z,102252.49
2019-02-21T08:39:10.822Z,102249.16
2019-02-21T08:40:15.810Z,102252.58
2019-02-21T08:41:20.800Z,102257.09
2019-02-21T08:42:25.498Z,102258.72
2019-02-21T08:43:30.776Z,102257.55
2019-02-21T08:44:36.333Z,102257.95
2019-02-21T08:45:41.302Z,102257.48
2019-02-21T08:46:46.287Z,102259.37
2019-02-21T08:47:50.810Z,102260.74
2019-02-21T08:48:55.526Z,102257.40
2019-02-21T08:50:00.776Z,102265.26
2019-02-21T08:51:06.370Z,102264.65
2019-02-21T08:52:11.836Z,102265.88
2019-02-21T08:53:16.872Z,102262.71
2019-02-21T08:54:21.977Z,102268.13
2019-02-21T08:55:27.255Z,102274.25
2019-02-21T08:56:31.994Z,102274.59
2019-02-21T08:57:37.332Z,102270.36
2019-02-21T08:58:42.288Z,102270.37
2019-02-21T08:59:47.289Z,102268.33
2019-02-21T09:00:54.287Z,102274.31
2019-02-21T09:01:59.296Z,102267.83
2019-02-21T09:03:04.257Z,102267.78
2019-02-21T09:04:13.516Z,102269.63
2019-02-21T09:05:16.424Z,102266.61
2019-02-21T09:06:21.717Z,102270.86
2019-02-21T09:07:26.698Z,102271.70
2019-02-21T09:08:34.946Z,102281.19
2019-02-21T09:09:37.847Z,102283.91
2019-02-21T09:10:43.129Z,102284.42
2019-02-21T09:11:48.107Z,102279.42
2019-02-21T09:12:52.879Z,102275.02
2019-02-21T09:13:58.140Z,102275.55
2019-02-21T09:15:03.478Z,102276.75
2019-02-21T09:16:08.465Z,102278.56
2019-02-21T09:17:13.185Z,102276.35
2019-02-21T09:18:18.144Z,102280.28
2019-02-21T09:19:23.388Z,102281.48
2019-02-21T09:20:28.352Z,102286.28
2019-02-21T09:21:33.077Z,102284.63
2019-02-21T09:22:38.745Z,102289.47
2019-02-21T09:23:43.777Z,102289.95
2019-02-21T09:24:48.743Z,102285.72
2019-02-21T09:25:53.723Z,102279.77
2019-02-21T09:27:00.270Z,102288.09
2019-02-21T09:28:05.638Z,102285.55
2019-02-21T09:29:11.222Z,102289.05
2019-02-21T09:30:17.716Z,102287.33
2019-02-21T09:31:22.655Z,102294.78
2019-02-21T09:32:27.613Z,102301.75
2019-02-21T09:33:32.899Z,102298.22
2019-02-21T09:34:38.166Z,102298.63
2019-02-21T09:35:43.156Z,102303.34
2019-02-21T09:36:48.193Z,102305.17
2019-02-21T09:37:52.940Z,102310.42
2019-02-21T09:38:57.668Z,102303.53
2019-02-21T09:40:02.647Z,102307.93
2019-02-21T09:41:07.410Z,102307.72
2019-02-21T09:42:12.729Z,102312.85
2019-02-21T09:43:17.720Z,102313.82
2019-02-21T09:44:22.962Z,102313.14
2019-02-21T09:45:28.594Z,102318.12
2019-02-21T09:46:33.078Z,102316.42
2019-02-21T09:47:38.050Z,102314.80
2019-02-21T09:48:42.860Z,102313.14
2019-02-21T09:49:47.832Z,102313.18
2019-02-21T09:50:53.403Z,102311.54
2019-02-21T09:51:58.659Z,102316.66
2019-02-21T09:53:03.138Z,102314.59
2019-02-21T09:54:08.127Z,102321.02
2019-02-21T09:55:14.397Z,102320.58
2019-02-21T09:56:29.492Z,102323.61
2019-02-21T09:57:25.862Z,102320.67
2019-02-21T09:58:30.581Z,102313.67
2019-02-21T09:59:35.860Z,102309.34
2019-02-21T10:00:40.829Z,102314.13
2019-02-21T10:01:45.520Z,102310.66
2019-02-21T10:02:54.243Z,102309.93
2019-02-21T10:03:57.508Z,102302.95
2019-02-21T10:05:05.323Z,102302.52
2019-02-21T10:06:09.011Z,102298.63
2019-02-21T10:07:14.281Z,102301.27
2019-02-21T10:08:18.734Z,102310.86
2019-02-21T10:09:23.717Z,102303.42
2019-02-21T10:10:29.299Z,102312.15
2019-02-21T10:11:34.031Z,102311.72
2019-02-21T10:12:39.573Z,102312.94
2019-02-21T10:13:44.072Z,102312.53
2019-02-21T10:14:49.405Z,102319.38
2019-02-21T10:15:54.116Z,102308.14
2019-02-21T10:16:59.489Z,102309.94
2019-02-21T10:18:04.201Z,102306.02
2019-02-21T10:19:09.152Z,102302.55
2019-02-21T10:20:15.724Z,102301.68
2019-02-21T10:21:20.720Z,102306.90
2019-02-21T10:22:26.286Z,102308.66
2019-02-21T10:23:31.554Z,102309.91
2019-02-21T10:24:36.247Z,102321.55
2019-02-21T10:25:41.530Z,102315.03
2019-02-21T10:26:46.564Z,102311.70
2019-02-21T10:27:51.298Z,102321.24
2019-02-21T10:28:56.569Z,102315.60
2019-02-21T10:30:01.903Z,102317.73
2019-02-21T10:31:06.577Z,102321.13
2019-02-21T10:32:12.159Z,102307.78
2019-02-21T10:33:17.699Z,102316.86
2019-02-21T10:34:22.861Z,102316.89
2019-02-21T10:35:27.569Z,102321.20
2019-02-21T10:36:32.782Z,102320.59
2019-02-21T10:37:38.063Z,102320.39
2019-02-21T10:38:43.619Z,102318.73
2019-02-21T10:39:48.332Z,102318.34
2019-02-21T10:40:53.348Z,102316.69
2019-02-21T10:41:58.341Z,102324.61
2019-02-21T10:43:03.318Z,102323.48
2019-02-21T10:44:08.329Z,102316.58
2019-02-21T10:45:15.403Z,102327.23
2019-02-21T10:46:20.709Z,102326.92
2019-02-21T10:47:25.955Z,102325.66
2019-02-21T10:48:31.202Z,102321.73
2019-02-21T10:49:35.810Z,102313.88
2019-02-21T10:50:40.821Z,102316.52
2019-02-21T10:51:45.819Z,102312.59
2019-02-21T10:52:50.570Z,102310.77
2019-02-21T10:53:55.873Z,102305.55
2019-02-21T10:55:01.245Z,102303.00
2019-02-21T10:56:06.223Z,102303.42
2019-02-21T10:57:10.938Z,102301.27
2019-02-21T10:58:16.206Z,102299.97
2019-02-21T10:59:21.206Z,102302.98
2019-02-21T11:00:27.445Z,102302.05
2019-02-21T11:01:32.433Z,102305.09
2019-02-21T11:02:37.131Z,102297.81
2019-02-21T11:03:42.397Z,102300.30
2019-02-21T11:04:54.696Z,102300.34
2019-02-21T11:05:54.828Z,102298.16
2019-02-21T11:07:00.141Z,102297.61
2019-02-21T11:08:05.234Z,102298.57
2019-02-21T11:09:14.588Z,102292.25
2019-02-21T11:10:22.283Z,102287.92
2019-02-21T11:11:27.267Z,102293.17
2019-02-21T11:12:31.735Z,102293.31
2019-02-21T11:13:37.049Z,102287.73
2019-02-21T11:14:47.412Z,102291.30
2019-02-21T11:15:48.754Z,102296.00
2019-02-21T11:16:53.793Z,102297.02
2019-02-21T11:17:58.769Z,102297.55
2019-02-21T11:19:03.773Z,102301.02
2019-02-21T11:20:10.891Z,102303.15
2019-02-21T11:21:15.884Z,102300.00
2019-02-21T11:22:20.577Z,102299.84
2019-02-21T11:23:25.442Z,102305.70
2019-02-21T11:24:30.239Z,102296.40
2019-02-21T11:25:34.930Z,102298.56
2019-02-21T11:26:39.939Z,102293.66
2019-02-21T11:27:44.767Z,102289.47
2019-02-21T11:28:50.003Z,102287.08
2019-02-21T11:29:55.285Z,102288.26
2019-02-21T11:31:00.271Z,102287.01
2019-02-21T11:32:05.306Z,102280.10
2019-02-21T11:33:10.105Z,102278.69
2019-02-21T11:34:15.053Z,102274.07
2019-02-21T11:35:20.602Z,102279.39
2019-02-21T11:36:25.285Z,102270.66
2019-02-21T11:37:30.533Z,102275.38
2019-02-21T11:38:35.512Z,102274.86
2019-02-21T11:39:41.063Z,102268.02
2019-02-21T11:40:46.108Z,102273.94
2019-02-21T11:41:50.896Z,102277.05
2019-02-21T11:42:55.914Z,102270.87
2019-02-21T11:44:00.981Z,102270.44
2019-02-21T11:45:06.312Z,102276.55
2019-02-21T11:46:11.031Z,102280.27
2019-02-21T11:47:16.014Z,102282.42
2019-02-21T11:48:20.768Z,102286.20
2019-02-21T11:49:25.751Z,102285.80
2019-02-21T11:50:30.756Z,102286.12
2019-02-21T11:51:35.467Z,102281.48
2019-02-21T11:52:40.442Z,102289.79
2019-02-21T11:53:45.553Z,102284.08
2019-02-21T11:54:50.348Z,102280.37
2019-02-21T11:55:55.219Z,102284.52
2019-02-21T11:57:00.599Z,102278.59
2019-02-21T11:58:05.302Z,102285.51
2019-02-21T11:59:10.855Z,102279.77
2019-02-21T12:00:18.643Z,102282.66
2019-02-21T12:01:23.329Z,102286.82
2019-02-21T12:02:38.441Z,102287.87
2019-02-21T12:03:34.456Z,102289.53
2019-02-21T12:04:39.202Z,102292.95
2019-02-21T12:05:44.492Z,102291.30
2019-02-21T12:06:49.232Z,102289.30
2019-02-21T12:07:54.193Z,102290.48
2019-02-21T12:08:59.529Z,102288.28
2019-02-21T12:10:04.546Z,102288.32
2019-02-21T12:11:09.357Z,102286.08
2019-02-21T12:12:14.567Z,102282.88
2019-02-21T12:13:19.615Z,102283.25
2019-02-21T12:14:24.307Z,102290.86
2019-02-21T12:15:29.301Z,102283.87
2019-02-21T12:16:34.599Z,102278.81
2019-02-21T12:17:39.328Z,102281.05
2019-02-21T12:18:44.564Z,102289.12
2019-02-21T12:19:49.532Z,102283.64
2019-02-21T12:20:55.067Z,102289.45
2019-02-21T12:21:59.764Z,102288.95
2019-02-21T12:23:04.743Z,102286.72
2019-02-21T12:24:09.435Z,102291.84
2019-02-21T12:25:15.716Z,102290.36
2019-02-21T12:26:20.726Z,102288.84
2019-02-21T12:27:25.740Z,102297.97
2019-02-21T12:28:30.620Z,102289.77
2019-02-21T12:29:35.603Z,102287.58
2019-02-21T12:30:40.647Z,102299.39
2019-02-21T12:31:45.510Z,102290.47
2019-02-21T12:32:51.086Z,102284.22
2019-02-21T12:33:56.634Z,102300.33
2019-02-21T12:35:01.890Z,102295.80
2019-02-21T12:36:07.449Z,102290.16
2019-02-21T12:37:12.434Z,102282.05
2019-02-21T12:38:17.181Z,102287.73